Time;durP1;ratioP1;P1;durP2;ratioP2;P2;SDS_P1;SDS_P2;PMS_P1;PMS_P2;Temp;Humidity;BMP_temperature;BMP_pressure;BME280_temperature;BME280_humidity;BME280_pressure;Samples;Min_cycle;Max_cycle;Signal;HPM_P1;HPM_P2
2022/08/14 00:03:28;;;;;;;10.50;9.50;;;17.20;99.90;;;;;;8332128;28;20210;-69
2022/08/14 00:07:29;;;;;;;10.50;9.57;;;17.20;99.90;;;;;;8351062;28;20187;-69
2022/08/14 00:11:30;;;;;;;10.57;9.67;;;17.20;99.90;;;;;;8334117;28;20226;-69
2022/08/14 00:15:35;;;;;;;10.10;9.20;;;17.20;99.90;;;;;;8341852;28;20240;-69
2022/08/14 00:19:35;;;;;;;10.97;9.97;;;17.10;99.90;;;;;;8338629;28;20202;-69
2022/08/14 00:23:38;;;;;;;10.93;9.83;;;17.10;99.90;;;;;;8331523;28;20232;-69
2022/08/14 00:27:39;;;;;;;13.90;12.50;;;17.00;99.90;;;;;;8331109;28;20214;-69
2022/08/14 00:31:40;;;;;;;14.23;12.90;;;17.10;99.90;;;;;;8336653;28;20190;-69
2022/08/14 00:35:41;;;;;;;11.50;10.30;;;17.00;99.90;;;;;;8335998;28;20477;-72
2022/08/14 00:39:42;;;;;;;11.43;10.33;;;17.00;99.90;;;;;;8338694;28;20479;-69
2022/08/14 00:43:45;;;;;;;11.60;10.60;;;16.90;99.90;;;;;;8337998;28;20612;-69
2022/08/14 00:47:47;;;;;;;11.00;9.60;;;16.90;99.90;;;;;;8347431;28;20252;-70
2022/08/14 00:51:48;;;;;;;13.10;10.23;;;16.80;99.90;;;;;;8330805;28;20185;-69
2022/08/14 00:55:50;;;;;;;9.60;8.77;;;16.80;99.90;;;;;;8335461;28;20224;-69
2022/08/14 00:59:51;;;;;;;9.93;8.93;;;16.70;99.90;;;;;;8339550;28;20260;-69
2022/08/14 01:03:52;;;;;;;9.27;8.40;;;16.60;99.90;;;;;;8349679;28;20183;-77
2022/08/14 01:07:57;;;;;;;12.70;10.17;;;16.60;99.90;;;;;;8339526;28;20233;-69
2022/08/14 01:11:59;;;;;;;8.13;7.43;;;16.60;99.90;;;;;;8340081;28;20220;-69
2022/08/14 01:16:02;;;;;;;5.80;5.30;;;16.60;99.90;;;;;;8347750;28;20195;-69
2022/08/14 01:24:24;;;;;;;6.23;5.70;;;16.30;99.90;;;;;;8333594;28;20193;-69
2022/08/14 01:28:25;;;;;;;7.50;6.73;;;16.20;99.90;;;;;;8332799;28;20218;-68
2022/08/14 01:32:26;;;;;;;7.87;7.03;;;16.10;99.90;;;;;;8339834;28;20178;-70
2022/08/14 01:36:36;;;;;;;7.97;7.27;;;16.00;99.90;;;;;;8334174;28;20174;-69
2022/08/14 01:40:37;;;;;;;7.87;7.17;;;15.90;99.90;;;;;;8334804;28;20201;-69
2022/08/14 01:44:38;;;;;;;8.17;7.47;;;15.80;99.90;;;;;;8335676;28;20181;-69
2022/08/14 01:48:43;;;;;;;7.80;7.10;;;15.80;99.90;;;;;;8334446;28;20193;-68
2022/08/14 01:52:43;;;;;;;6.73;6.13;;;15.70;99.90;;;;;;8331043;28;20186;-69
2022/08/14 01:56:45;;;;;;;6.33;5.80;;;15.70;99.90;;;;;;8334991;28;20277;-68
2022/08/14 02:00:52;;;;;;;6.13;5.63;;;15.70;99.90;;;;;;8345512;28;20214;-69
2022/08/14 02:04:53;;;;;;;6.37;5.77;;;15.60;99.90;;;;;;8333428;28;20201;-68
2022/08/14 02:08:54;;;;;;;6.70;6.17;;;15.60;99.90;;;;;;8330684;28;20182;-68
2022/08/14 02:12:56;;;;;;;5.90;5.40;;;15.50;99.90;;;;;;8331329;28;20247;-68
2022/08/14 02:16:57;;;;;;;7.33;6.43;;;15.50;99.90;;;;;;8341933;28;20234;-68
2022/08/14 02:20:57;;;;;;;7.10;6.50;;;15.40;99.90;;;;;;8334820;28;20450;-69
2022/08/14 02:24:59;;;;;;;7.57;6.87;;;15.40;99.90;;;;;;8345200;28;20263;-68
2022/08/14 02:29:12;;;;;;;7.73;7.03;;;15.30;99.90;;;;;;8335299;28;20201;-69
2022/08/14 02:33:12;;;;;;;7.80;7.10;;;15.30;99.90;;;;;;8337269;28;20182;-68
2022/08/14 02:37:14;;;;;;;8.00;7.20;;;15.30;99.90;;;;;;8332009;28;20182;-70
2022/08/14 02:41:16;;;;;;;9.27;8.40;;;15.20;99.90;;;;;;8338526;28;20228;-69
2022/08/14 02:45:20;;;;;;;10.67;9.67;;;15.30;99.90;;;;;;8335311;28;20491;-68
2022/08/14 02:49:25;;;;;;;9.13;8.33;;;15.30;99.90;;;;;;8332962;28;20170;-69
2022/08/14 02:53:26;;;;;;;10.40;9.40;;;15.20;99.90;;;;;;8334920;28;20223;-68
2022/08/14 02:57:27;;;;;;;10.20;9.17;;;15.20;99.90;;;;;;8335792;28;20182;-70
2022/08/14 03:01:28;;;;;;;10.73;9.73;;;15.10;99.90;;;;;;8336854;28;20206;-68
2022/08/14 03:05:29;;;;;;;10.00;9.00;;;15.00;99.90;;;;;;8333862;28;20197;-68
2022/08/14 03:09:31;;;;;;;9.80;8.87;;;15.00;99.90;;;;;;8338296;28;20193;-68
2022/08/14 03:13:34;;;;;;;9.13;8.23;;;14.90;99.90;;;;;;8335731;28;20271;-69
2022/08/14 03:17:35;;;;;;;9.53;8.57;;;14.80;99.90;;;;;;8335930;28;20181;-68
2022/08/14 03:21:38;;;;;;;10.63;9.53;;;14.80;99.90;;;;;;8335846;28;20626;-68
2022/08/14 03:25:39;;;;;;;9.93;9.10;;;14.80;99.90;;;;;;8340883;28;20266;-68
2022/08/14 03:29:40;;;;;;;7.90;7.20;;;14.80;99.90;;;;;;8354342;28;20211;-68
2022/08/14 03:33:42;;;;;;;8.67;7.67;;;14.80;99.90;;;;;;8335023;28;20197;-69
2022/08/14 03:37:43;;;;;;;8.43;7.63;;;14.80;99.90;;;;;;8332721;28;20209;-69
2022/08/14 03:41:43;;;;;;;8.30;7.50;;;14.70;99.90;;;;;;8334189;28;20210;-68
2022/08/14 03:45:44;;;;;;;8.13;7.40;;;14.60;99.90;;;;;;8352746;28;20182;-68
2022/08/14 03:49:46;;;;;;;8.83;8.03;;;14.60;99.90;;;;;;8336813;28;20217;-73
2022/08/14 03:53:47;;;;;;;9.43;8.57;;;14.50;99.90;;;;;;8335871;28;20181;-68
2022/08/14 03:57:48;;;;;;;8.70;7.90;;;14.50;99.90;;;;;;8343608;28;20193;-68
2022/08/14 04:01:50;;;;;;;9.43;8.53;;;14.50;99.90;;;;;;8336647;28;20207;-69
2022/08/14 04:05:52;;;;;;;8.53;7.73;;;14.60;99.90;;;;;;8342613;28;20188;-71
2022/08/14 04:09:53;;;;;;;9.20;8.40;;;14.70;99.90;;;;;;8340983;28;20193;-70
2022/08/14 04:13:54;;;;;;;11.00;10.07;;;14.80;99.90;;;;;;8339152;28;20256;-70
2022/08/14 04:17:55;;;;;;;11.80;10.73;;;15.20;99.90;;;;;;8339067;28;20273;-71
2022/08/14 04:21:56;;;;;;;12.23;11.03;;;15.70;99.90;;;;;;8348748;28;20232;-70
2022/08/14 04:25:57;;;;;;;11.87;10.77;;;16.10;99.90;;;;;;8341868;28;20186;-70
2022/08/14 04:29:58;;;;;;;11.20;9.47;;;16.60;99.90;;;;;;8348462;28;20190;-70
2022/08/14 04:33:59;;;;;;;10.27;9.37;;;17.10;99.90;;;;;;8339451;28;20181;-71
2022/08/14 04:51:09;;;;;;;13.53;12.23;;;18.50;99.90;;;;;;8338544;28;20223;-70
2022/08/14 04:55:10;;;;;;;11.87;10.73;;;18.70;99.90;;;;;;8348823;28;20199;-70
2022/08/14 04:59:11;;;;;;;12.03;10.93;;;19.00;99.90;;;;;;8336005;28;20238;-70
2022/08/14 05:03:12;;;;;;;14.93;13.53;;;19.10;99.90;;;;;;8338168;28;20213;-70
2022/08/14 05:07:13;;;;;;;14.60;13.20;;;18.90;99.90;;;;;;8336295;28;20208;-70
2022/08/14 05:11:15;;;;;;;14.50;13.20;;;18.70;99.90;;;;;;8341050;28;20245;-70
2022/08/14 05:15:15;;;;;;;14.77;13.27;;;18.60;99.90;;;;;;8332832;28;20190;-71
2022/08/14 05:19:16;;;;;;;13.63;12.23;;;18.50;99.90;;;;;;8338197;28;20189;-70
2022/08/14 05:23:22;;;;;;;13.73;12.43;;;18.40;99.90;;;;;;8337227;28;20205;-71
2022/08/14 05:27:23;;;;;;;13.47;12.13;;;18.40;99.90;;;;;;8334529;28;20189;-71
2022/08/14 05:31:24;;;;;;;15.67;14.20;;;18.30;99.90;;;;;;8334520;28;20186;-71
2022/08/14 05:35:25;;;;;;;17.47;15.87;;;18.30;99.90;;;;;;8332093;28;20197;-70
2022/08/14 05:39:26;;;;;;;17.43;15.83;;;18.20;99.90;;;;;;8337592;28;20243;-70
2022/08/14 05:43:28;;;;;;;18.80;17.03;;;18.10;99.90;;;;;;8331475;28;20174;-71
2022/08/14 05:47:29;;;;;;;15.63;14.13;;;18.10;99.90;;;;;;8334768;28;21585;-70
2022/08/14 05:51:30;;;;;;;18.63;16.83;;;18.20;99.90;;;;;;8332954;28;20186;-70
2022/08/14 05:55:31;;;;;;;20.53;18.57;;;18.30;99.90;;;;;;8332730;28;20186;-70
2022/08/14 05:59:32;;;;;;;21.07;19.07;;;18.40;99.90;;;;;;8341911;28;20297;-74
2022/08/14 06:03:33;;;;;;;20.23;18.43;;;18.60;99.90;;;;;;8336557;28;20201;-70
2022/08/14 06:07:37;;;;;;;19.37;17.57;;;18.90;99.90;;;;;;8331526;28;20186;-70
2022/08/14 06:11:38;;;;;;;19.03;17.20;;;19.10;99.90;;;;;;8344109;28;20225;-70
2022/08/14 06:15:40;;;;;;;19.97;18.00;;;19.30;99.90;;;;;;8330379;28;20647;-70
2022/08/14 06:19:41;;;;;;;19.50;17.50;;;19.40;99.90;;;;;;8333405;28;20190;-71
2022/08/14 06:23:42;;;;;;;20.63;18.73;;;19.50;99.90;;;;;;8330083;28;20265;-70
2022/08/14 06:27:45;;;;;;;21.37;19.27;;;19.80;99.90;;;;;;8345558;28;20182;-70
2022/08/14 06:31:46;;;;;;;20.90;18.77;;;20.00;99.90;;;;;;8332293;28;20186;-71
2022/08/14 06:35:48;;;;;;;20.20;18.30;;;20.20;99.90;;;;;;8338046;28;20190;-71
2022/08/14 06:39:49;;;;;;;21.17;19.07;;;20.40;99.90;;;;;;8340263;28;20289;-70
2022/08/14 06:43:50;;;;;;;19.97;18.00;;;20.30;99.90;;;;;;8338471;28;20190;-70
2022/08/14 06:47:51;;;;;;;20.53;18.57;;;20.40;99.90;;;;;;8338025;28;20205;-71
2022/08/14 06:51:53;;;;;;;21.90;19.80;;;20.60;99.90;;;;;;8336928;28;20235;-71
2022/08/14 06:55:54;;;;;;;22.83;20.70;;;20.80;99.90;;;;;;8336399;28;20275;-68
2022/08/14 06:59:55;;;;;;;21.23;19.20;;;20.90;99.90;;;;;;8338961;28;20208;-69
2022/08/14 07:08:21;;;;;;;22.97;20.77;;;20.90;99.90;;;;;;8337010;28;20193;-69
2022/08/14 07:12:22;;;;;;;22.70;20.40;;;21.00;99.90;;;;;;8345871;28;20214;-69
2022/08/14 07:16:23;;;;;;;17.97;16.37;;;21.20;99.90;;;;;;8341417;28;20189;-70
2022/08/14 07:20:24;;;;;;;20.00;18.10;;;21.40;99.90;;;;;;8349938;28;20518;-70
2022/08/14 07:24:25;;;;;;;19.90;17.93;;;21.40;99.90;;;;;;8336599;28;20221;-70
2022/08/14 07:28:30;;;;;;;19.07;17.30;;;21.30;99.90;;;;;;8339078;28;20332;-69
2022/08/14 07:32:31;;;;;;;17.30;15.70;;;21.20;99.90;;;;;;8351694;28;20332;-70
2022/08/14 07:36:32;;;;;;;18.20;16.50;;;21.30;99.90;;;;;;8352362;28;20188;-69
2022/08/14 07:40:34;;;;;;;17.07;15.57;;;21.50;99.90;;;;;;8336175;28;20203;-68
2022/08/14 07:44:34;;;;;;;16.83;15.00;;;21.50;99.90;;;;;;8338735;28;20502;-70
2022/08/14 07:48:40;;;;;;;16.77;15.20;;;21.50;99.90;;;;;;8335400;28;21381;-69
2022/08/14 07:52:46;;;;;;;16.87;15.17;;;21.60;99.90;;;;;;8336093;28;20182;-68
2022/08/14 07:56:47;;;;;;;15.90;14.37;;;21.70;99.90;;;;;;8341209;28;20238;-69
2022/08/14 08:00:49;;;;;;;16.97;15.47;;;22.00;99.90;;;;;;8338051;28;20260;-70
2022/08/14 08:04:54;;;;;;;15.90;14.50;;;22.40;99.90;;;;;;8351940;28;20211;-69
2022/08/14 08:08:58;;;;;;;16.03;14.53;;;22.60;7.30;;;;;;8335767;28;20178;-69
2022/08/14 08:13:03;;;;;;;15.10;13.60;;;22.80;99.90;;;;;;8353914;28;20216;-69
2022/08/14 08:17:05;;;;;;;12.60;11.50;;;23.00;1.00;;;;;;8337118;28;20239;-70
2022/08/14 08:21:07;;;;;;;13.30;12.10;;;23.30;99.90;;;;;;8336316;28;20212;-69
2022/08/14 08:25:08;;;;;;;13.63;12.40;;;23.70;1.00;;;;;;8355111;28;20213;-69
2022/08/14 08:29:17;;;;;;;12.83;11.20;;;24.20;28.90;;;;;;8337569;28;20632;-69
2022/08/14 08:33:19;;;;;;;12.73;11.53;;;24.60;1.00;;;;;;8341527;28;20178;-68
2022/08/14 08:37:20;;;;;;;13.97;12.70;;;24.60;1.00;;;;;;8336359;28;20189;-69
2022/08/14 08:41:21;;;;;;;12.00;10.90;;;25.00;99.90;;;;;;8337019;28;20650;-69
2022/08/14 08:45:22;;;;;;;11.77;10.68;;;25.20;99.90;;;;;;8350177;28;20182;-69
2022/08/14 08:49:34;;;;;;;11.95;10.93;;;25.50;99.90;;;;;;8333055;28;20177;-68
2022/08/14 08:53:36;;;;;;;11.80;10.20;;;25.80;98.70;;;;;;8338724;28;20222;-69
2022/08/14 08:57:37;;;;;;;11.95;10.85;;;26.00;89.20;;;;;;8348246;28;20187;-69
2022/08/14 09:01:37;;;;;;;11.35;10.25;;;26.10;27.50;;;;;;8347301;28;20221;-69
2022/08/14 09:05:48;;;;;;;12.35;11.15;;;26.30;1.00;;;;;;8339254;28;20173;-68
2022/08/14 09:09:55;;;;;;;14.88;11.23;;;26.50;1.00;;;;;;8338977;28;20178;-66
2022/08/14 09:13:55;;;;;;;12.25;11.00;;;26.60;1.00;;;;;;8336489;28;20308;-68
2022/08/14 09:17:56;;;;;;;9.65;8.82;;;26.60;99.90;;;;;;8338284;28;20181;-68
2022/08/14 09:21:58;;;;;;;10.35;9.30;;;26.80;99.90;;;;;;8335273;28;20229;-71
2022/08/14 09:25:58;;;;;;;9.45;8.50;;;27.00;99.90;;;;;;8337291;28;20185;-68
2022/08/14 09:29:59;;;;;;;8.93;8.02;;;27.00;99.90;;;;;;8340194;28;20201;-67
2022/08/14 09:34:11;;;;;;;9.82;7.72;;;26.90;99.90;;;;;;8342531;28;20182;-70
2022/08/14 09:38:49;;;;;;;8.65;7.07;;;26.90;99.90;;;;;;8333157;28;20285;-69
2022/08/14 09:43:13;;;;;;;8.85;7.28;;;26.70;99.90;;;;;;8337106;28;20201;-71
2022/08/14 09:47:15;;;;;;;7.32;6.28;;;26.60;99.90;;;;;;8332830;28;20231;-69
2022/08/14 09:51:23;;;;;;;9.15;6.68;;;26.60;99.90;;;;;;8339191;28;20266;-69
2022/08/14 09:55:26;;;;;;;7.03;6.32;;;26.90;99.90;;;;;;8344370;28;20194;-69
2022/08/14 09:59:38;;;;;;;6.82;5.35;;;26.90;99.90;;;;;;8333203;28;20186;-69
2022/08/14 10:03:48;;;;;;;8.40;5.68;;;26.90;99.90;;;;;;8331160;28;20209;-67
2022/08/14 10:07:51;;;;;;;6.65;5.93;;;26.90;99.90;;;;;;8334121;28;20174;-68
2022/08/14 10:11:57;;;;;;;5.65;5.07;;;27.00;99.90;;;;;;8334384;28;20225;-67
2022/08/14 10:16:01;;;;;;;5.70;4.07;;;27.10;99.90;;;;;;8342378;28;20182;-67
2022/08/14 10:20:03;;;;;;;6.53;4.72;;;27.30;99.90;;;;;;8345536;28;20202;-68
2022/08/14 10:24:08;;;;;;;7.45;5.15;;;27.70;99.90;;;;;;8335673;28;20202;-67
2022/08/14 10:28:14;;;;;;;5.22;4.53;;;28.20;87.20;;;;;;8336607;28;20185;-67
2022/08/14 10:32:15;;;;;;;5.28;4.78;;;28.50;93.80;;;;;;8350010;28;20185;-67
2022/08/14 10:36:26;;;;;;;4.82;4.20;;;28.90;37.20;;;;;;8350337;28;20182;-67
2022/08/14 10:40:30;;;;;;;4.85;4.40;;;29.40;1.00;;;;;;8347294;28;20214;-67
2022/08/14 10:44:40;;;;;;;4.28;3.88;;;29.70;1.00;;;;;;8339727;28;20450;-68
2022/08/14 10:48:53;;;;;;;6.90;4.07;;;30.10;1.00;;;;;;8349326;28;20195;-66
2022/08/14 10:52:59;;;;;;;4.65;4.22;;;30.50;1.00;;;;;;8350008;28;20316;-68
2022/08/14 10:57:23;;;;;;;4.85;3.78;;;30.70;1.00;;;;;;8334154;28;20178;-67
2022/08/14 11:01:30;;;;;;;6.82;4.70;;;31.20;1.00;;;;;;8330214;28;20306;-64
2022/08/14 11:05:47;;;;;;;4.45;4.05;;;31.00;1.00;;;;;;8335229;28;20268;-65
2022/08/14 11:10:07;;;;;;;4.65;4.13;;;30.90;1.00;;;;;;8336461;28;20182;-67
2022/08/14 11:14:08;;;;;;;10.73;4.53;;;30.30;1.00;;;;;;8343878;28;20212;-68
2022/08/14 11:18:11;;;;;;;14.15;4.70;;;29.30;1.00;;;;;;8334073;28;20178;-68
2022/08/14 11:22:14;;;;;;;12.23;5.47;;;28.30;66.00;;;;;;8336174;28;20616;-68
2022/08/14 11:26:22;;;;;;;8.05;5.18;;;27.20;99.90;;;;;;8352446;28;20200;-67
2022/08/14 11:30:29;;;;;;;6.15;4.90;;;26.60;1.00;;;;;;8352553;28;20186;-68
2022/08/14 11:34:32;;;;;;;5.28;4.80;;;26.50;99.90;;;;;;8340038;28;20177;-66
2022/08/14 11:38:41;;;;;;;7.90;5.90;;;26.90;1.00;;;;;;8351225;28;20195;-64
2022/08/14 11:42:46;;;;;;;6.35;4.95;;;27.30;99.90;;;;;;8336292;28;20210;-66
2022/08/14 11:46:48;;;;;;;5.10;4.55;;;28.00;1.00;;;;;;8335187;28;20191;-66
2022/08/14 11:50:53;;;;;;;4.80;4.25;;;28.80;99.90;;;;;;8353536;28;20221;-67
2022/08/14 11:54:57;;;;;;;7.10;4.43;;;29.20;99.90;;;;;;8333469;28;20213;-66
2022/08/14 11:58:58;;;;;;;4.75;4.30;;;29.00;99.90;;;;;;8339330;28;20186;-67
2022/08/14 12:03:00;;;;;;;5.53;4.25;;;28.80;99.90;;;;;;8335299;28;20206;-66
2022/08/14 12:07:06;;;;;;;5.72;4.35;;;28.80;99.90;;;;;;8340981;28;20178;-68
2022/08/14 12:11:09;;;;;;;5.15;4.43;;;28.60;99.90;;;;;;8338383;28;20227;-67
2022/08/14 12:15:11;;;;;;;6.43;4.20;;;28.20;99.90;;;;;;8334702;28;20214;-72
2022/08/14 12:19:14;;;;;;;4.53;4.13;;;28.40;99.90;;;;;;8349527;28;20187;-66
2022/08/14 12:23:23;;;;;;;5.40;4.55;;;28.70;99.90;;;;;;8338060;28;20201;-67
2022/08/14 12:27:59;;;;;;;6.72;4.38;;;28.90;73.40;;;;;;8340333;28;20537;-67
2022/08/14 12:32:05;;;;;;;4.80;4.28;;;28.90;90.50;;;;;;8316801;28;20197;-66
2022/08/14 12:36:09;;;;;;;5.38;4.55;;;28.80;99.90;;;;;;8337615;28;20185;-65
2022/08/14 12:40:15;;;;;;;4.95;4.55;;;28.70;99.90;;;;;;8337940;28;20217;-66
2022/08/14 12:44:16;;;;;;;5.25;4.68;;;28.30;99.90;;;;;;8337708;28;20178;-63
2022/08/14 12:48:18;;;;;;;6.80;4.70;;;28.10;99.90;;;;;;8334520;28;20225;-65
2022/08/14 12:52:39;;;;;;;6.00;4.78;;;27.70;99.90;;;;;;8337703;28;20241;-65
2022/08/14 12:56:40;;;;;;;4.97;4.47;;;27.50;99.90;;;;;;8335022;28;20187;-67
2022/08/14 13:00:51;;;;;;;5.78;4.85;;;27.70;99.90;;;;;;8320196;28;20300;-65
2022/08/14 13:04:56;;;;;;;8.50;4.97;;;27.90;99.90;;;;;;8349749;28;20188;-66
2022/08/14 13:08:57;;;;;;;5.57;4.93;;;27.90;99.90;;;;;;8335378;28;20273;-69
2022/08/14 13:12:59;;;;;;;7.75;4.97;;;27.50;99.90;;;;;;8346190;28;20236;-68
2022/08/14 13:17:03;;;;;;;6.15;4.93;;;26.80;1.00;;;;;;8347212;28;20190;-68
2022/08/14 13:21:05;;;;;;;6.25;5.10;;;26.20;1.00;;;;;;8333831;28;20212;-68
2022/08/14 13:25:08;;;;;;;10.43;6.15;;;25.70;1.00;;;;;;8336169;28;20194;-75
2022/08/14 13:29:10;;;;;;;5.78;5.15;;;25.50;1.00;;;;;;8330314;28;20233;-67
2022/08/14 13:33:13;;;;;;;6.80;6.03;;;25.40;99.90;;;;;;8345472;28;20221;-67
2022/08/14 13:37:15;;;;;;;7.13;6.40;;;25.30;99.90;;;;;;8334723;28;20213;-67
2022/08/14 13:41:22;;;;;;;7.10;5.63;;;25.10;1.00;;;;;;8333818;28;20202;-66
2022/08/14 13:45:25;;;;;;;6.38;5.55;;;25.10;1.00;;;;;;8346094;28;20489;-68
2022/08/14 13:49:26;;;;;;;5.40;4.82;;;25.20;99.90;;;;;;8333931;28;20174;-68
2022/08/14 13:53:28;;;;;;;7.32;5.85;;;25.40;1.00;;;;;;8334684;28;20224;-69
2022/08/14 13:57:36;;;;;;;8.45;5.82;;;25.40;99.90;;;;;;8332941;28;20189;-68
2022/08/14 14:01:40;;;;;;;6.03;5.45;;;25.40;99.90;;;;;;8346215;28;20210;-67
2022/08/14 14:05:42;;;;;;;8.00;6.10;;;25.50;99.90;;;;;;8333916;28;20181;-66
2022/08/14 14:09:46;;;;;;;7.45;6.25;;;25.60;1.00;;;;;;8332575;28;20178;-67
2022/08/14 14:13:47;;;;;;;6.57;5.95;;;25.90;1.00;;;;;;8335188;28;20209;-66
2022/08/14 14:17:48;;;;;;;9.65;6.45;;;26.00;99.90;;;;;;8333683;28;20599;-64
2022/08/14 14:21:50;;;;;;;6.97;6.28;;;26.60;1.00;;;;;;8332052;28;20223;-66
2022/08/14 14:25:53;;;;;;;9.07;6.35;;;27.20;99.90;;;;;;8334699;28;20170;-64
2022/08/14 14:29:59;;;;;;;8.32;6.35;;;27.60;93.90;;;;;;8333276;28;20693;-65
2022/08/14 14:34:03;;;;;;;8.45;7.13;;;27.60;1.00;;;;;;8335387;28;20285;-67
2022/08/14 14:38:07;;;;;;;7.85;7.00;;;27.10;20.00;;;;;;8346793;28;20217;-67
2022/08/14 14:42:09;;;;;;;9.20;7.35;;;26.70;99.90;;;;;;8332202;28;20238;-70
2022/08/14 14:46:14;;;;;;;8.57;7.40;;;26.50;99.90;;;;;;8332427;28;20189;-68
2022/08/14 14:50:18;;;;;;;8.43;6.40;;;26.50;1.00;;;;;;8338088;28;20233;-68
2022/08/14 14:54:23;;;;;;;8.13;7.32;;;26.40;1.00;;;;;;8329468;28;20281;-68
2022/08/14 14:58:24;;;;;;;7.88;7.25;;;26.50;1.00;;;;;;8341429;28;20232;-70
2022/08/14 15:02:40;;;;;;;8.05;6.38;;;26.30;1.00;;;;;;8337898;28;20206;-68
2022/08/14 15:06:41;;;;;;;7.93;6.55;;;26.40;1.00;;;;;;8336769;28;20186;-67
2022/08/14 15:10:42;;;;;;;8.02;6.25;;;26.40;99.90;;;;;;8343375;28;20197;-66
2022/08/14 15:14:43;;;;;;;7.70;6.47;;;26.60;99.90;;;;;;8339815;28;20181;-66
2022/08/14 15:18:44;;;;;;;7.32;6.57;;;26.80;42.70;;;;;;8337970;28;20276;-67
2022/08/14 15:22:46;;;;;;;6.60;6.00;;;27.10;1.00;;;;;;8339767;28;20301;-67
2022/08/14 15:26:47;;;;;;;6.70;6.10;;;27.30;1.00;;;;;;8338927;28;20189;-68
2022/08/14 15:30:49;;;;;;;6.55;5.95;;;27.10;1.00;;;;;;8342056;28;20186;-68
2022/08/14 15:34:53;;;;;;;5.75;5.25;;;26.90;1.00;;;;;;8337130;28;20273;-68
2022/08/14 15:38:55;;;;;;;6.93;5.90;;;26.70;1.00;;;;;;8338816;28;20422;-67
2022/08/14 15:42:56;;;;;;;5.70;5.10;;;26.60;1.00;;;;;;8342318;28;20245;-69
2022/08/14 15:46:58;;;;;;;8.10;5.40;;;26.40;1.00;;;;;;8335739;28;20201;-68
2022/08/14 15:51:00;;;;;;;5.55;5.05;;;26.30;46.50;;;;;;8335156;28;20186;-68
2022/08/14 15:55:07;;;;;;;7.22;6.53;;;26.30;62.20;;;;;;8338918;28;20650;-68
2022/08/14 15:59:11;;;;;;;6.30;5.32;;;26.40;99.90;;;;;;8337166;28;20253;-68
2022/08/14 16:03:12;;;;;;;6.50;5.75;;;26.40;99.90;;;;;;8336639;28;20206;-68
2022/08/14 16:07:17;;;;;;;6.70;6.10;;;26.50;23.50;;;;;;8335280;28;20265;-66
2022/08/14 16:11:18;;;;;;;7.30;6.03;;;26.60;33.80;;;;;;8331475;28;20218;-67
2022/08/14 16:15:19;;;;;;;6.65;6.03;;;26.50;1.00;;;;;;8333256;28;20182;-66
2022/08/14 16:19:21;;;;;;;6.90;5.78;;;26.30;1.00;;;;;;8338326;28;20202;-67
2022/08/14 16:23:26;;;;;;;6.25;5.65;;;26.20;1.00;;;;;;8337155;28;20232;-67
2022/08/14 16:27:28;;;;;;;6.03;5.53;;;26.30;1.00;;;;;;8337647;28;20179;-66
2022/08/14 16:31:29;;;;;;;7.47;6.00;;;26.30;1.00;;;;;;8340654;28;20179;-65
2022/08/14 16:35:35;;;;;;;6.57;5.97;;;26.60;99.90;;;;;;8332496;28;20182;-66
2022/08/14 16:39:39;;;;;;;6.75;6.05;;;26.70;99.90;;;;;;8335476;28;20383;-65
2022/08/14 16:43:43;;;;;;;6.63;6.03;;;26.80;99.90;;;;;;8334945;28;20206;-66
2022/08/14 16:47:44;;;;;;;8.13;6.35;;;26.70;1.00;;;;;;8342042;28;20243;-66
2022/08/14 16:51:46;;;;;;;6.18;5.57;;;26.80;99.90;;;;;;8347456;28;20190;-65
2022/08/14 16:56:11;;;;;;;6.35;5.75;;;26.90;99.90;;;;;;8341713;28;20241;-64
2022/08/14 17:00:26;;;;;;;6.82;6.13;;;27.10;99.90;;;;;;8334420;28;20189;-68
2022/08/14 17:04:29;;;;;;;6.68;5.93;;;27.00;1.00;;;;;;8333827;28;20245;-70
2022/08/14 17:08:34;;;;;;;6.65;5.78;;;26.90;1.00;;;;;;8336144;28;20181;-68
2022/08/14 17:12:35;;;;;;;6.45;5.85;;;26.60;1.00;;;;;;8336396;28;20360;-68
2022/08/14 17:16:37;;;;;;;6.97;6.35;;;26.30;99.90;;;;;;8335480;28;20615;-67
2022/08/14 17:20:37;;;;;;;6.47;5.57;;;26.00;99.90;;;;;;8338547;28;20209;-68
2022/08/14 17:24:39;;;;;;;6.50;5.82;;;25.80;99.90;;;;;;8333458;28;20190;-67
2022/08/14 17:28:40;;;;;;;6.93;6.33;;;25.50;1.00;;;;;;8335355;28;20258;-68
2022/08/14 17:32:44;;;;;;;7.17;6.57;;;25.20;22.00;;;;;;8332051;28;20193;-67
2022/08/14 17:36:51;;;;;;;8.13;7.37;;;25.00;99.90;;;;;;8346118;28;20273;-68
2022/08/14 17:41:20;;;;;;;9.33;8.43;;;24.60;1.00;;;;;;8351708;28;20306;-67
2022/08/14 17:45:14;;;;;;;9.17;8.30;;;24.30;99.90;;;;;;8331528;28;20187;-68
2022/08/14 17:49:24;;;;;;;9.03;8.13;;;24.00;99.90;;;;;;8335966;28;20182;-69
2022/08/14 17:53:25;;;;;;;11.13;8.90;;;23.80;99.90;;;;;;8348065;28;20213;-68
2022/08/14 17:57:29;;;;;;;11.30;9.63;;;23.50;99.90;;;;;;8350387;28;20188;-69
2022/08/14 18:01:34;;;;;;;11.43;10.33;;;23.30;99.90;;;;;;8331343;28;20788;-70
2022/08/14 18:05:36;;;;;;;11.27;10.20;;;23.10;1.00;;;;;;8331262;28;20182;-68
2022/08/14 18:09:42;;;;;;;12.60;11.40;;;22.90;1.00;;;;;;8335314;28;20186;-69
2022/08/14 18:13:46;;;;;;;11.93;10.73;;;22.70;1.00;;;;;;8335234;28;20236;-69
2022/08/14 18:17:48;;;;;;;11.10;10.10;;;22.50;99.90;;;;;;8336777;28;20204;-69
2022/08/14 18:21:49;;;;;;;10.93;9.83;;;22.30;99.90;;;;;;8336118;28;20220;-69
2022/08/14 18:25:53;;;;;;;11.77;10.67;;;22.10;99.90;;;;;;8338129;28;20245;-70
2022/08/14 18:29:57;;;;;;;11.73;10.30;;;21.90;99.90;;;;;;8336465;28;20174;-69
2022/08/14 18:34:14;;;;;;;10.57;9.57;;;21.80;99.90;;;;;;8341485;28;20188;-69
2022/08/14 18:38:25;;;;;;;10.97;9.97;;;21.60;84.70;;;;;;8337275;28;20198;-68
2022/08/14 18:42:26;;;;;;;10.30;9.30;;;21.50;1.00;;;;;;8355654;28;20267;-69
2022/08/14 18:46:27;;;;;;;9.90;9.00;;;21.40;1.00;;;;;;8340313;28;20255;-69
2022/08/14 18:50:28;;;;;;;10.23;9.20;;;21.30;1.00;;;;;;8345452;28;20182;-70
2022/08/14 18:54:36;;;;;;;11.03;9.93;;;21.20;1.00;;;;;;8336528;28;20182;-70
2022/08/14 18:58:52;;;;;;;12.13;10.97;;;21.10;99.90;;;;;;8344268;28;20644;-70
2022/08/14 19:03:07;;;;;;;10.47;9.47;;;21.00;99.90;;;;;;8338209;28;20214;-70
2022/08/14 19:07:18;;;;;;;10.87;9.77;;;20.90;1.00;;;;;;8346467;28;20261;-70
2022/08/14 19:11:33;;;;;;;10.60;9.53;;;20.90;1.00;;;;;;8352376;28;20316;-70
2022/08/14 19:15:37;;;;;;;12.00;10.67;;;20.80;1.00;;;;;;8341486;28;20200;-70
2022/08/14 19:19:41;;;;;;;10.37;9.17;;;20.70;99.90;;;;;;8337985;28;20196;-70
2022/08/14 19:23:42;;;;;;;10.80;9.73;;;20.60;99.90;;;;;;8339296;28;20213;-68
2022/08/14 19:27:43;;;;;;;10.70;9.70;;;20.50;99.90;;;;;;8336519;28;20313;-68
2022/08/14 19:31:46;;;;;;;10.03;9.03;;;20.50;99.90;;;;;;8340655;28;20194;-68
2022/08/14 19:35:48;;;;;;;10.77;9.77;;;20.40;99.90;;;;;;8333539;28;20191;-69
2022/08/14 19:39:54;;;;;;;13.00;11.60;;;20.40;99.90;;;;;;8337703;28;20270;-67
2022/08/14 19:44:13;;;;;;;11.13;10.03;;;20.40;99.90;;;;;;8339781;28;20217;-68
2022/08/14 19:48:14;;;;;;;10.50;9.40;;;20.40;99.90;;;;;;8333892;28;20190;-69
2022/08/14 19:52:24;;;;;;;10.90;9.80;;;20.40;99.90;;;;;;8338367;28;20186;-69
2022/08/14 19:56:26;;;;;;;10.57;9.47;;;20.30;99.90;;;;;;8343082;28;20186;-69
2022/08/14 20:00:28;;;;;;;15.20;13.17;;;20.20;99.90;;;;;;8338244;28;20218;-69
2022/08/14 20:04:30;;;;;;;13.73;11.70;;;20.20;99.90;;;;;;8337605;28;20193;-71
2022/08/14 20:08:32;;;;;;;13.27;10.97;;;20.10;99.90;;;;;;8354026;28;20347;-71
2022/08/14 20:12:34;;;;;;;10.70;9.60;;;20.10;99.90;;;;;;8340607;28;20218;-70
2022/08/14 20:16:39;;;;;;;11.63;10.43;;;20.10;99.90;;;;;;8340954;28;20186;-70
2022/08/14 20:20:41;;;;;;;10.97;9.70;;;19.90;99.90;;;;;;8335466;28;20241;-70
2022/08/14 20:24:44;;;;;;;10.90;9.73;;;19.90;99.90;;;;;;8349284;28;20185;-70
2022/08/14 20:28:47;;;;;;;11.33;10.03;;;19.80;99.90;;;;;;8339622;28;20193;-70
2022/08/14 20:32:53;;;;;;;10.30;9.20;;;19.70;99.90;;;;;;8339964;28;20331;-70
2022/08/14 20:37:07;;;;;;;9.87;8.87;;;19.60;99.90;;;;;;8340472;28;20189;-69
2022/08/14 20:41:08;;;;;;;9.73;8.73;;;19.50;99.90;;;;;;8334433;28;20267;-70
2022/08/14 20:45:18;;;;;;;8.97;8.07;;;19.40;99.90;;;;;;8354896;28;20198;-70
2022/08/14 20:49:27;;;;;;;8.73;7.90;;;19.30;99.90;;;;;;8339312;28;20320;-70
2022/08/14 20:53:34;;;;;;;9.70;8.73;;;19.20;99.90;;;;;;8334042;28;20245;-69
2022/08/14 20:57:37;;;;;;;9.03;8.13;;;19.10;99.90;;;;;;8349959;28;20197;-69
2022/08/14 21:01:38;;;;;;;9.57;8.57;;;19.00;99.90;;;;;;8336119;28;20214;-70
2022/08/14 21:05:39;;;;;;;10.10;9.03;;;18.90;99.90;;;;;;8337096;28;20186;-70
2022/08/14 21:10:01;;;;;;;9.70;8.70;;;18.80;99.90;;;;;;8336680;28;20186;-70
2022/08/14 21:14:03;;;;;;;10.67;9.57;;;18.70;99.90;;;;;;8343562;28;20554;-70
2022/08/14 21:18:04;;;;;;;10.20;9.10;;;18.70;99.90;;;;;;8348679;28;20240;-70
2022/08/14 21:22:05;;;;;;;9.33;8.33;;;18.60;99.90;;;;;;8335550;28;20210;-70